Time;durP1;ratioP1;P1;durP2;ratioP2;P2;SDS_P1;SDS_P2;PMS_P1;PMS_P2;Temp;Humidity;BMP_temperature;BMP_pressure;BME280_temperature;BME280_humidity;BME280_pressure;Samples;Min_cycle;Max_cycle;Signal;HPM_P1;HPM_P2
2024/01/18 00:01:31;;;;;;;11.13;8.37;;;;;;;;;;4995124;28;20242;-88
2024/01/18 00:03:58;;;;;;;10.27;7.80;;;;;;;;;;4997260;28;20244;-87
2024/01/18 00:06:25;;;;;;;9.70;7.67;;;;;;;;;;4996758;28;20245;-88
2024/01/18 00:08:52;;;;;;;8.67;7.33;;;;;;;;;;4996698;28;20698;-88
2024/01/18 00:11:19;;;;;;;10.30;7.77;;;;;;;;;;4995384;28;20243;-88
2024/01/18 00:13:47;;;;;;;9.17;7.03;;;;;;;;;;4995735;28;20201;-88
2024/01/18 00:16:15;;;;;;;8.67;6.83;;;;;;;;;;4995273;28;20644;-88
2024/01/18 00:18:42;;;;;;;8.90;7.30;;;;;;;;;;4995644;28;20326;-88
2024/01/18 00:21:09;;;;;;;9.53;6.97;;;;;;;;;;4995158;28;20242;-88
2024/01/18 00:23:36;;;;;;;11.87;8.20;;;;;;;;;;4995813;28;20212;-89
2024/01/18 00:26:03;;;;;;;9.83;7.73;;;;;;;;;;4995130;28;20243;-88
2024/01/18 00:28:30;;;;;;;11.13;6.47;;;;;;;;;;4995720;28;20307;-88
2024/01/18 00:30:57;;;;;;;13.30;8.43;;;;;;;;;;4994620;28;20628;-88
2024/01/18 00:33:26;;;;;;;9.97;8.00;;;;;;;;;;4994894;28;20207;-88
2024/01/18 00:35:53;;;;;;;8.37;6.80;;;;;;;;;;4995097;28;20239;-89
2024/01/18 00:38:20;;;;;;;8.97;7.20;;;;;;;;;;4995219;28;20230;-88
2024/01/18 00:40:47;;;;;;;8.60;7.47;;;;;;;;;;4994763;28;20240;-88
2024/01/18 00:43:14;;;;;;;8.93;6.70;;;;;;;;;;4996121;28;20709;-88
2024/01/18 00:45:41;;;;;;;11.13;7.33;;;;;;;;;;4995175;28;20238;-88
2024/01/18 00:48:09;;;;;;;6.53;5.30;;;;;;;;;;4999340;28;20215;-88
2024/01/18 00:50:37;;;;;;;8.30;7.20;;;;;;;;;;4997030;28;20237;-88
2024/01/18 00:53:04;;;;;;;8.80;7.57;;;;;;;;;;4995297;28;20211;-88
2024/01/18 00:55:32;;;;;;;7.60;6.80;;;;;;;;;;4994259;28;20234;-88
2024/01/18 00:58:00;;;;;;;9.60;7.13;;;;;;;;;;4995005;28;20577;-88
2024/01/18 01:00:28;;;;;;;10.37;7.60;;;;;;;;;;4994391;28;20242;-88
2024/01/18 01:02:55;;;;;;;9.93;7.60;;;;;;;;;;4994777;28;20638;-89
2024/01/18 01:05:22;;;;;;;8.97;7.17;;;;;;;;;;4994566;28;20222;-88
2024/01/18 01:07:50;;;;;;;9.73;6.97;;;;;;;;;;4994734;28;20211;-88
2024/01/18 01:10:17;;;;;;;10.87;7.90;;;;;;;;;;4994456;28;20288;-88
2024/01/18 01:12:44;;;;;;;9.73;7.47;;;;;;;;;;4994892;28;20237;-88
2024/01/18 01:15:11;;;;;;;10.57;7.67;;;;;;;;;;4994401;28;20211;-88
2024/01/18 01:17:38;;;;;;;10.63;7.53;;;;;;;;;;4994333;28;20741;-88
2024/01/18 01:20:06;;;;;;;13.07;8.03;;;;;;;;;;4994197;28;20239;-87
2024/01/18 01:22:33;;;;;;;10.97;8.23;;;;;;;;;;4994480;28;20215;-88
2024/01/18 01:25:02;;;;;;;14.20;8.17;;;;;;;;;;4994559;28;20203;-88
2024/01/18 01:27:29;;;;;;;12.63;8.23;;;;;;;;;;4994026;28;20223;-88
2024/01/18 01:29:56;;;;;;;10.33;7.77;;;;;;;;;;4994372;28;20737;-88
2024/01/18 01:32:23;;;;;;;8.00;6.97;;;;;;;;;;4993853;28;20245;-88
2024/01/18 01:34:50;;;;;;;8.60;7.00;;;;;;;;;;4994423;28;20219;-88
2024/01/18 01:37:17;;;;;;;14.47;7.33;;;;;;;;;;4993511;28;20243;-88
2024/01/18 01:39:44;;;;;;;12.00;8.30;;;;;;;;;;4994141;28;20237;-88
2024/01/18 01:42:12;;;;;;;10.30;7.13;;;;;;;;;;4993827;28;20242;-88
2024/01/18 01:44:39;;;;;;;13.07;8.40;;;;;;;;;;4994293;28;20214;-88
2024/01/18 01:47:06;;;;;;;9.30;7.27;;;;;;;;;;4993540;28;20610;-88
2024/01/18 01:49:33;;;;;;;11.43;7.77;;;;;;;;;;4994055;28;20211;-88
2024/01/18 01:52:01;;;;;;;13.50;9.07;;;;;;;;;;4993291;28;20239;-87
2024/01/18 01:54:29;;;;;;;9.63;7.50;;;;;;;;;;4994108;28;20214;-88
2024/01/18 01:56:57;;;;;;;11.70;7.80;;;;;;;;;;4993262;28;20234;-88
2024/01/18 01:59:26;;;;;;;13.60;8.63;;;;;;;;;;4993595;28;20285;-88
2024/01/18 02:01:53;;;;;;;11.23;8.03;;;;;;;;;;4992972;28;20245;-87
2024/01/18 02:04:20;;;;;;;8.83;7.50;;;;;;;;;;4993425;28;20211;-87
2024/01/18 02:06:48;;;;;;;11.00;8.13;;;;;;;;;;4990056;28;20867;-87
2024/01/18 02:09:15;;;;;;;10.17;8.07;;;;;;;;;;4992025;28;20265;-88
2024/01/18 02:11:43;;;;;;;11.87;7.80;;;;;;;;;;4992976;28;20272;-87
2024/01/18 02:14:11;;;;;;;8.87;7.70;;;;;;;;;;4993743;28;20218;-88
2024/01/18 02:16:39;;;;;;;10.40;7.33;;;;;;;;;;4993147;28;20234;-87
2024/01/18 02:19:06;;;;;;;10.70;7.97;;;;;;;;;;4993258;28;20715;-88
2024/01/18 02:21:33;;;;;;;12.70;7.43;;;;;;;;;;4993072;28;20253;-88
2024/01/18 02:24:01;;;;;;;8.83;7.17;;;;;;;;;;4993317;28;20204;-88
2024/01/18 02:26:29;;;;;;;13.70;8.67;;;;;;;;;;4993129;28;20250;-87
2024/01/18 02:28:57;;;;;;;9.90;7.47;;;;;;;;;;4993265;28;20200;-87
2024/01/18 02:31:24;;;;;;;11.63;8.90;;;;;;;;;;4992800;28;20250;-87
2024/01/18 02:33:51;;;;;;;8.30;6.93;;;;;;;;;;4993415;28;20219;-87
2024/01/18 02:36:18;;;;;;;12.70;8.03;;;;;;;;;;4993021;28;20257;-88
2024/01/18 02:38:46;;;;;;;12.57;8.10;;;;;;;;;;4993234;28;20239;-87
2024/01/18 02:41:13;;;;;;;9.53;8.00;;;;;;;;;;4992584;28;20333;-87
2024/01/18 02:43:42;;;;;;;12.20;8.70;;;;;;;;;;4993548;28;20274;-88
2024/01/18 02:46:09;;;;;;;14.73;8.20;;;;;;;;;;4992868;28;20247;-87
2024/01/18 02:48:37;;;;;;;11.60;8.67;;;;;;;;;;4993237;28;20616;-87
2024/01/18 02:51:04;;;;;;;10.90;8.27;;;;;;;;;;4996236;28;20247;-87
2024/01/18 02:53:31;;;;;;;13.50;7.93;;;;;;;;;;4995511;28;20601;-87
2024/01/18 02:55:58;;;;;;;11.30;8.50;;;;;;;;;;4992872;28;20270;-88
2024/01/18 02:58:25;;;;;;;11.77;8.97;;;;;;;;;;4992851;28;20614;-87
2024/01/18 03:00:54;;;;;;;11.60;8.77;;;;;;;;;;4992838;28;20242;-87
2024/01/18 03:03:21;;;;;;;9.17;7.60;;;;;;;;;;4993188;28;20207;-88
2024/01/18 03:05:48;;;;;;;10.20;7.73;;;;;;;;;;4992502;28;20242;-86
2024/01/18 03:08:15;;;;;;;9.87;7.27;;;;;;;;;;4992947;28;20298;-87
2024/01/18 03:10:42;;;;;;;9.37;7.23;;;;;;;;;;4992638;28;20253;-87
2024/01/18 03:13:09;;;;;;;9.37;7.53;;;;;;;;;;4993131;28;20214;-87
2024/01/18 03:15:36;;;;;;;11.80;8.57;;;;;;;;;;4992381;28;20239;-87
2024/01/18 03:18:05;;;;;;;12.93;8.77;;;;;;;;;;4992944;28;20216;-87
2024/01/18 03:20:32;;;;;;;11.77;8.90;;;;;;;;;;4995570;28;20724;-87
2024/01/18 03:22:59;;;;;;;13.70;8.17;;;;;;;;;;4996615;28;20215;-87
2024/01/18 03:25:27;;;;;;;10.53;8.17;;;;;;;;;;4995635;28;20242;-87
2024/01/18 03:27:54;;;;;;;11.07;7.60;;;;;;;;;;4996296;28;20219;-87
2024/01/18 03:30:21;;;;;;;14.67;8.90;;;;;;;;;;4995585;28;20228;-87
2024/01/18 03:32:48;;;;;;;11.20;8.73;;;;;;;;;;4996075;28;20208;-88
2024/01/18 03:35:17;;;;;;;12.00;9.17;;;;;;;;;;4995404;28;20218;-88
2024/01/18 03:37:44;;;;;;;12.20;8.63;;;;;;;;;;4995641;28;20277;-88
2024/01/18 03:40:11;;;;;;;8.53;6.30;;;;;;;;;;4995127;28;20263;-87
2024/01/18 03:42:40;;;;;;;8.70;6.40;;;;;;;;;;4995887;28;20314;-87
2024/01/18 03:45:08;;;;;;;9.67;7.50;;;;;;;;;;4995884;28;20239;-87
2024/01/18 03:47:35;;;;;;;11.57;7.97;;;;;;;;;;4996336;28;20215;-87
2024/01/18 03:50:02;;;;;;;11.17;7.97;;;;;;;;;;4996234;28;20223;-87
2024/01/18 03:52:30;;;;;;;9.47;7.50;;;;;;;;;;5015431;28;20316;-87
2024/01/18 03:54:57;;;;;;;10.97;8.50;;;;;;;;;;5015688;28;20661;-87
2024/01/18 03:57:25;;;;;;;11.43;8.50;;;;;;;;;;4995635;28;20241;-87
2024/01/18 03:59:52;;;;;;;12.27;8.47;;;;;;;;;;4995794;28;20232;-87
2024/01/18 04:02:19;;;;;;;10.47;8.37;;;;;;;;;;4995314;28;20712;-87
2024/01/18 04:04:46;;;;;;;8.73;7.37;;;;;;;;;;4996604;28;20215;-87
2024/01/18 04:07:13;;;;;;;8.40;6.90;;;;;;;;;;4994961;28;20243;-86
2024/01/18 04:09:41;;;;;;;11.13;7.87;;;;;;;;;;4995618;28;20257;-87
2024/01/18 04:12:08;;;;;;;12.83;8.43;;;;;;;;;;4995098;28;20246;-87
2024/01/18 04:14:35;;;;;;;10.00;7.00;;;;;;;;;;4995430;28;20204;-87
2024/01/18 04:17:02;;;;;;;8.93;7.67;;;;;;;;;;4994768;28;20297;-87
2024/01/18 04:19:29;;;;;;;8.67;7.67;;;;;;;;;;4995281;28;20592;-86
2024/01/18 04:21:56;;;;;;;12.77;7.43;;;;;;;;;;4994764;28;20243;-87
2024/01/18 04:24:24;;;;;;;11.37;6.87;;;;;;;;;;4996266;28;20225;-86
2024/01/18 04:26:52;;;;;;;7.03;5.87;;;;;;;;;;4996761;28;20265;-87
2024/01/18 04:29:19;;;;;;;5.97;5.30;;;;;;;;;;4997284;28;20211;-87
2024/01/18 04:31:46;;;;;;;8.30;6.60;;;;;;;;;;4993810;28;20247;-86
2024/01/18 04:34:13;;;;;;;9.80;6.47;;;;;;;;;;4995279;28;20215;-86
2024/01/18 04:36:40;;;;;;;7.83;6.40;;;;;;;;;;4995195;28;20301;-86
2024/01/18 04:39:09;;;;;;;8.77;6.23;;;;;;;;;;4994823;28;20726;-87
2024/01/18 04:41:36;;;;;;;6.93;5.70;;;;;;;;;;4994015;28;20787;-86
2024/01/18 04:44:05;;;;;;;6.57;5.70;;;;;;;;;;4995219;28;20214;-87
2024/01/18 04:46:33;;;;;;;7.50;5.63;;;;;;;;;;4994568;28;20243;-87
2024/01/18 04:49:00;;;;;;;8.30;6.00;;;;;;;;;;4994896;28;20215;-87
2024/01/18 04:51:27;;;;;;;7.03;6.33;;;;;;;;;;4994998;28;20297;-87
2024/01/18 04:53:54;;;;;;;7.37;5.40;;;;;;;;;;4996808;28;20218;-87
2024/01/18 04:56:21;;;;;;;6.07;5.43;;;;;;;;;;4995497;28;20649;-87
2024/01/18 04:58:48;;;;;;;8.33;6.23;;;;;;;;;;4994805;28;20258;-87
2024/01/18 05:01:17;;;;;;;7.03;5.77;;;;;;;;;;4994401;28;20243;-86
2024/01/18 05:03:45;;;;;;;7.50;5.93;;;;;;;;;;4998167;28;20302;-87
2024/01/18 05:06:12;;;;;;;11.17;6.37;;;;;;;;;;4993983;28;20309;-87
2024/01/18 05:08:39;;;;;;;7.77;5.90;;;;;;;;;;4994301;28;20211;-87
2024/01/18 05:11:06;;;;;;;10.27;6.07;;;;;;;;;;4993719;28;20239;-87
2024/01/18 05:13:33;;;;;;;7.30;5.70;;;;;;;;;;4994426;28;20302;-86
2024/01/18 05:16:01;;;;;;;8.63;6.27;;;;;;;;;;4993787;28;20618;-87
2024/01/18 05:18:29;;;;;;;6.53;5.87;;;;;;;;;;4994030;28;20310;-87
2024/01/18 05:20:57;;;;;;;7.67;5.80;;;;;;;;;;4993448;28;20644;-87
2024/01/18 05:23:24;;;;;;;6.40;5.43;;;;;;;;;;4994088;28;20207;-86
2024/01/18 05:25:51;;;;;;;7.53;5.50;;;;;;;;;;4993451;28;20249;-85
2024/01/18 05:28:18;;;;;;;9.83;6.40;;;;;;;;;;4993703;28;20200;-87
2024/01/18 05:30:45;;;;;;;5.50;4.80;;;;;;;;;;4993612;28;20243;-87
2024/01/18 05:33:12;;;;;;;9.63;5.40;;;;;;;;;;4994114;28;20203;-87
2024/01/18 05:35:40;;;;;;;9.23;6.53;;;;;;;;;;4992681;28;20242;-86
2024/01/18 05:38:07;;;;;;;5.83;5.07;;;;;;;;;;4993863;28;20265;-87
2024/01/18 05:40:34;;;;;;;8.50;5.67;;;;;;;;;;4993089;28;20669;-87
2024/01/18 05:43:01;;;;;;;6.30;5.70;;;;;;;;;;4993532;28;20665;-85
2024/01/18 05:45:31;;;;;;;6.00;5.13;;;;;;;;;;4993250;28;20244;-86
2024/01/18 05:48:01;;;;;;;8.17;5.17;;;;;;;;;;4993880;28;20200;-86
2024/01/18 05:50:29;;;;;;;6.93;6.23;;;;;;;;;;4993057;28;20242;-85
2024/01/18 05:52:57;;;;;;;8.07;5.83;;;;;;;;;;4993627;28;20581;-86
2024/01/18 05:55:24;;;;;;;7.37;5.97;;;;;;;;;;4993053;28;20264;-86
2024/01/18 05:57:51;;;;;;;6.97;6.07;;;;;;;;;;4992857;28;20233;-86
2024/01/18 06:00:18;;;;;;;7.23;5.47;;;;;;;;;;4992679;28;20253;-85
2024/01/18 06:02:45;;;;;;;6.07;4.30;;;;;;;;;;4992868;28;20198;-86
2024/01/18 06:05:12;;;;;;;8.33;5.10;;;;;;;;;;4992668;28;20237;-85
2024/01/18 06:07:39;;;;;;;8.33;5.90;;;;;;;;;;4992668;28;20671;-85
2024/01/18 06:10:08;;;;;;;10.27;6.00;;;;;;;;;;4992958;28;20234;-84
2024/01/18 06:12:35;;;;;;;14.83;6.07;;;;;;;;;;4994421;28;20213;-87
2024/01/18 06:15:02;;;;;;;8.07;5.50;;;;;;;;;;4994112;28;20211;-83
2024/01/18 06:17:30;;;;;;;7.47;5.43;;;;;;;;;;4994375;28;20214;-88
2024/01/18 06:19:57;;;;;;;7.43;5.93;;;;;;;;;;4994110;28;20231;-87
2024/01/18 06:22:24;;;;;;;7.63;5.70;;;;;;;;;;4993243;28;20240;-87
2024/01/18 06:24:51;;;;;;;7.37;6.03;;;;;;;;;;4993222;28;20215;-86
2024/01/18 06:27:19;;;;;;;8.67;6.00;;;;;;;;;;4992828;28;20238;-87
2024/01/18 06:29:47;;;;;;;6.90;6.20;;;;;;;;;;4993608;28;20213;-87
2024/01/18 06:32:14;;;;;;;6.77;5.63;;;;;;;;;;4992828;28;20672;-87
2024/01/18 06:34:41;;;;;;;7.27;5.77;;;;;;;;;;4993404;28;20264;-86
2024/01/18 06:37:08;;;;;;;6.27;4.97;;;;;;;;;;4992497;28;20234;-86
2024/01/18 06:39:36;;;;;;;9.60;6.23;;;;;;;;;;4993168;28;20240;-88
2024/01/18 06:42:07;;;;;;;8.67;6.10;;;;;;;;;;4992175;28;20291;-85
2024/01/18 06:44:35;;;;;;;8.43;6.33;;;;;;;;;;4992657;28;20190;-85
2024/01/18 06:47:02;;;;;;;7.57;5.80;;;;;;;;;;4992122;28;20292;-85
2024/01/18 06:49:29;;;;;;;11.50;6.47;;;;;;;;;;4992696;28;20218;-86
2024/01/18 06:51:56;;;;;;;11.37;5.60;;;;;;;;;;4992137;28;20246;-85
2024/01/18 06:54:24;;;;;;;10.90;6.33;;;;;;;;;;4994014;28;20230;-85
2024/01/18 06:56:51;;;;;;;9.60;6.20;;;;;;;;;;4996173;28;20239;-85
2024/01/18 06:59:18;;;;;;;7.73;5.77;;;;;;;;;;4996002;28;20697;-86
2024/01/18 07:01:47;;;;;;;6.10;5.50;;;;;;;;;;4995681;28;20296;-85
2024/01/18 07:04:14;;;;;;;6.43;5.70;;;;;;;;;;4996385;28;20264;-86
2024/01/18 07:06:41;;;;;;;7.87;6.03;;;;;;;;;;4995749;28;20298;-86
2024/01/18 07:09:08;;;;;;;7.47;5.03;;;;;;;;;;4996084;28;20257;-85
2024/01/18 07:11:35;;;;;;;8.27;6.33;;;;;;;;;;4995635;28;20355;-86
2024/01/18 07:14:02;;;;;;;10.67;6.23;;;;;;;;;;4996265;28;20242;-86
2024/01/18 07:16:29;;;;;;;8.73;6.07;;;;;;;;;;4995880;28;20243;-85
2024/01/18 07:18:57;;;;;;;6.27;5.67;;;;;;;;;;4996014;28;20242;-86
2024/01/18 07:21:25;;;;;;;7.80;6.17;;;;;;;;;;4996043;28;20239;-85
2024/01/18 07:23:52;;;;;;;6.90;5.70;;;;;;;;;;4996212;28;20270;-85
2024/01/18 07:26:20;;;;;;;7.50;5.90;;;;;;;;;;4995650;28;20641;-86
2024/01/18 07:28:47;;;;;;;7.53;5.77;;;;;;;;;;4995589;28;20591;-86
2024/01/18 07:31:14;;;;;;;7.73;6.53;;;;;;;;;;4995571;28;20242;-84
2024/01/18 07:33:41;;;;;;;7.87;5.87;;;;;;;;;;4996227;28;20214;-86
2024/01/18 07:36:10;;;;;;;10.70;6.37;;;;;;;;;;4995604;28;20238;-86
2024/01/18 07:38:37;;;;;;;10.07;6.47;;;;;;;;;;4995457;28;20211;-86
2024/01/18 07:41:04;;;;;;;9.70;5.30;;;;;;;;;;4995139;28;20622;-86
2024/01/18 07:43:31;;;;;;;6.80;5.97;;;;;;;;;;4995745;28;20634;-86
2024/01/18 07:45:58;;;;;;;5.43;4.93;;;;;;;;;;4995180;28;20293;-86
2024/01/18 07:48:25;;;;;;;6.73;5.80;;;;;;;;;;4995607;28;20210;-86
2024/01/18 07:50:52;;;;;;;7.70;6.33;;;;;;;;;;4994979;28;20248;-86
2024/01/18 07:53:20;;;;;;;6.60;5.90;;;;;;;;;;4995552;28;20214;-86
2024/01/18 07:55:47;;;;;;;7.57;6.17;;;;;;;;;;4994997;28;20663;-86
2024/01/18 07:58:15;;;;;;;6.00;5.40;;;;;;;;;;4995154;28;20661;-86
2024/01/18 08:00:43;;;;;;;12.13;6.57;;;;;;;;;;4994615;28;20305;-85
2024/01/18 08:03:10;;;;;;;8.43;5.60;;;;;;;;;;4995420;28;20213;-86
2024/01/18 08:05:37;;;;;;;8.23;6.43;;;;;;;;;;4995147;28;20241;-85
2024/01/18 08:08:04;;;;;;;8.23;5.87;;;;;;;;;;4995379;28;20297;-86
2024/01/18 08:10:32;;;;;;;7.07;5.47;;;;;;;;;;4995016;28;20296;-85
2024/01/18 08:13:01;;;;;;;5.63;5.13;;;;;;;;;;4995258;28;20302;-86
2024/01/18 08:15:28;;;;;;;7.97;6.57;;;;;;;;;;4995158;28;20234;-86
2024/01/18 08:17:55;;;;;;;8.63;6.57;;;;;;;;;;4995220;28;20215;-86
2024/01/18 08:20:23;;;;;;;8.87;6.40;;;;;;;;;;4994371;28;20274;-86
2024/01/18 08:22:50;;;;;;;6.37;5.77;;;;;;;;;;4994982;28;20215;-84
2024/01/18 08:25:18;;;;;;;8.77;6.87;;;;;;;;;;4994374;28;20211;-85
2024/01/18 08:27:46;;;;;;;7.30;6.20;;;;;;;;;;4994867;28;20631;-87
2024/01/18 08:30:13;;;;;;;7.80;6.10;;;;;;;;;;4994262;28;20231;-86
2024/01/18 08:32:40;;;;;;;11.77;5.87;;;;;;;;;;4994683;28;20218;-87
2024/01/18 08:35:08;;;;;;;7.47;5.87;;;;;;;;;;4994663;28;20209;-86
2024/01/18 08:37:37;;;;;;;7.13;6.47;;;;;;;;;;4995201;28;20199;-88
2024/01/18 08:40:04;;;;;;;7.17;5.10;;;;;;;;;;4994742;28;20228;-86
2024/01/18 08:42:31;;;;;;;7.67;6.80;;;;;;;;;;4994915;28;20215;-86
2024/01/18 08:44:59;;;;;;;13.33;7.63;;;;;;;;;;4995013;28;20215;-86
2024/01/18 08:47:26;;;;;;;10.37;5.80;;;;;;;;;;4993972;28;20262;-87
2024/01/18 08:49:53;;;;;;;9.50;6.63;;;;;;;;;;4994358;28;21107;-87
2024/01/18 08:52:21;;;;;;;7.37;6.37;;;;;;;;;;4993859;28;20269;-87
2024/01/18 08:54:49;;;;;;;12.43;7.00;;;;;;;;;;4995061;28;20297;-87
2024/01/18 08:57:17;;;;;;;11.03;7.30;;;;;;;;;;4994337;28;20238;-86
2024/01/18 08:59:44;;;;;;;9.00;5.80;;;;;;;;;;4994490;28;20207;-86
2024/01/18 09:02:13;;;;;;;9.07;6.47;;;;;;;;;;4993985;28;20247;-87
2024/01/18 09:04:40;;;;;;;7.87;5.60;;;;;;;;;;4994409;28;20261;-86
2024/01/18 09:07:07;;;;;;;11.77;7.67;;;;;;;;;;4993773;28;20607;-86
2024/01/18 09:09:34;;;;;;;8.77;7.37;;;;;;;;;;4994485;28;20206;-86
2024/01/18 09:12:01;;;;;;;10.70;7.30;;;;;;;;;;4993912;28;20228;-87
2024/01/18 09:14:28;;;;;;;10.70;7.37;;;;;;;;;;4994303;28;20262;-86
2024/01/18 09:16:55;;;;;;;10.00;7.37;;;;;;;;;;4993302;28;20242;-86
2024/01/18 09:19:23;;;;;;;10.10;7.70;;;;;;;;;;4994273;28;20222;-86
2024/01/18 09:21:50;;;;;;;11.47;7.77;;;;;;;;;;4993498;28;20596;-86
2024/01/18 09:24:19;;;;;;;11.40;7.83;;;;;;;;;;4994196;28;20258;-86
2024/01/18 09:26:47;;;;;;;8.53;6.37;;;;;;;;;;4993877;28;20239;-86
2024/01/18 09:29:14;;;;;;;8.77;6.67;;;;;;;;;;4996034;28;20218;-86
2024/01/18 09:31:41;;;;;;;11.17;6.53;;;;;;;;;;4994629;28;20245;-86
2024/01/18 09:34:08;;;;;;;9.57;7.40;;;;;;;;;;4995160;28;20699;-86
2024/01/18 09:36:37;;;;;;;9.27;7.27;;;;;;;;;;4994199;28;20297;-86
2024/01/18 09:39:07;;;;;;;8.77;7.00;;;;;;;;;;4993448;28;20258;-86
2024/01/18 09:41:35;;;;;;;10.50;8.00;;;;;;;;;;4993206;28;20238;-86
2024/01/18 09:44:04;;;;;;;9.70;6.90;;;;;;;;;;4993732;28;20234;-86
2024/01/18 09:46:31;;;;;;;11.23;7.73;;;;;;;;;;4993774;28;20626;-86
2024/01/18 09:48:59;;;;;;;12.63;8.13;;;;;;;;;;4993478;28;20208;-86
2024/01/18 09:51:26;;;;;;;12.53;8.77;;;;;;;;;;4992950;28;20655;-86
2024/01/18 09:53:55;;;;;;;11.73;8.03;;;;;;;;;;4993336;28;20212;-86
2024/01/18 09:56:24;;;;;;;11.90;7.50;;;;;;;;;;4993090;28;20255;-86
2024/01/18 09:58:52;;;;;;;13.07;9.50;;;;;;;;;;4993193;28;20570;-86
2024/01/18 10:01:20;;;;;;;12.10;8.90;;;;;;;;;;4993014;28;20246;-85
2024/01/18 10:03:48;;;;;;;10.17;8.30;;;;;;;;;;4993619;28;20210;-85
2024/01/18 10:06:15;;;;;;;8.63;7.33;;;;;;;;;;4993040;28;20378;-85
2024/01/18 10:08:42;;;;;;;14.43;10.03;;;;;;;;;;4993145;28;20214;-85
2024/01/18 10:11:11;;;;;;;10.70;7.87;;;;;;;;;;4992673;28;20236;-86
2024/01/18 10:13:54;;;;;;;9.63;6.30;;;;;;;;;;4993178;28;20207;-86
2024/01/18 10:16:28;;;;;;;12.13;7.67;;;;;;;;;;4992847;28;20640;-86
2024/01/18 10:18:55;;;;;;;11.87;8.67;;;;;;;;;;4992972;28;20196;-86
2024/01/18 10:21:23;;;;;;;12.20;6.90;;;;;;;;;;4992463;28;20255;-86
2024/01/18 10:23:50;;;;;;;12.47;7.40;;;;;;;;;;4993478;28;20303;-85
2024/01/18 10:26:19;;;;;;;8.67;6.97;;;;;;;;;;4992784;28;20242;-85
2024/01/18 10:28:46;;;;;;;9.80;7.50;;;;;;;;;;5001527;28;20235;-85
2024/01/18 10:31:13;;;;;;;11.57;7.37;;;;;;;;;;4997857;28;20265;-85
2024/01/18 10:33:40;;;;;;;9.23;6.70;;;;;;;;;;4997178;28;20220;-85
2024/01/18 10:36:08;;;;;;;9.33;6.20;;;;;;;;;;4996610;28;20243;-86
2024/01/18 10:38:35;;;;;;;9.57;6.33;;;;;;;;;;4996953;28;20211;-85
2024/01/18 10:41:03;;;;;;;9.37;6.80;;;;;;;;;;4996215;28;20322;-85
2024/01/18 10:43:32;;;;;;;14.37;8.80;;;;;;;;;;4996782;28;20559;-85
2024/01/18 10:46:00;;;;;;;9.70;6.73;;;;;;;;;;4996620;28;20240;-85
2024/01/18 10:48:27;;;;;;;11.30;8.17;;;;;;;;;;4996792;28;20293;-86
2024/01/18 10:50:55;;;;;;;10.63;8.57;;;;;;;;;;4996473;28;20270;-86
2024/01/18 10:53:23;;;;;;;8.97;7.77;;;;;;;;;;4996861;28;20675;-86
2024/01/18 10:55:50;;;;;;;10.47;7.50;;;;;;;;;;4996185;28;20745;-86
2024/01/18 10:58:17;;;;;;;13.20;7.90;;;;;;;;;;4996812;28;20235;-86
2024/01/18 11:00:47;;;;;;;10.30;7.63;;;;;;;;;;4996508;28;20243;-86
2024/01/18 11:03:14;;;;;;;14.97;8.90;;;;;;;;;;4996565;28;20729;-86
2024/01/18 11:05:41;;;;;;;14.03;9.70;;;;;;;;;;4996351;28;20231;-86
2024/01/18 11:08:09;;;;;;;10.33;8.17;;;;;;;;;;4996364;28;20208;-86
2024/01/18 11:10:36;;;;;;;15.73;9.10;;;;;;;;;;4996165;28;20243;-85
2024/01/18 11:13:05;;;;;;;14.90;10.03;;;;;;;;;;4996800;28;20659;-86
2024/01/18 11:15:32;;;;;;;13.57;8.47;;;;;;;;;;4996185;28;20236;-86
2024/01/18 11:18:00;;;;;;;13.80;8.87;;;;;;;;;;4996167;28;20275;-85
2024/01/18 11:20:27;;;;;;;14.57;9.47;;;;;;;;;;4996032;28;20240;-83
2024/01/18 11:22:58;;;;;;;13.63;9.07;;;;;;;;;;4995890;28;20224;-84
2024/01/18 11:25:28;;;;;;;13.63;8.03;;;;;;;;;;4995445;28;20231;-82
2024/01/18 11:27:55;;;;;;;11.43;7.83;;;;;;;;;;4995286;28;20737;-82
2024/01/18 11:30:36;;;;;;;14.60;10.13;;;;;;;;;;4995066;28;20247;-82
2024/01/18 11:33:04;;;;;;;13.53;9.27;;;;;;;;;;4995818;28;20204;-81
2024/01/18 11:35:33;;;;;;;11.13;8.53;;;;;;;;;;4995279;28;20232;-81
2024/01/18 11:38:19;;;;;;;15.87;8.80;;;;;;;;;;4995465;28;20271;-81
2024/01/18 11:40:46;;;;;;;14.20;9.07;;;;;;;;;;4994041;28;20729;-83
2024/01/18 11:43:13;;;;;;;14.20;8.53;;;;;;;;;;4995711;28;20226;-83
2024/01/18 11:45:44;;;;;;;8.93;8.03;;;;;;;;;;4995005;28;20299;-84
2024/01/18 11:48:13;;;;;;;14.47;9.47;;;;;;;;;;4995221;28;20266;-83
2024/01/18 11:50:40;;;;;;;14.63;9.07;;;;;;;;;;4994935;28;20273;-83
2024/01/18 11:53:08;;;;;;;11.93;8.30;;;;;;;;;;4995282;28;20260;-82
2024/01/18 11:55:38;;;;;;;12.30;8.27;;;;;;;;;;4994833;28;20236;-82
2024/01/18 11:58:05;;;;;;;12.43;8.50;;;;;;;;;;4994779;28;20212;-82
2024/01/18 12:00:32;;;;;;;14.10;9.83;;;;;;;;;;4994531;28;20239;-83
2024/01/18 12:03:03;;;;;;;14.47;8.90;;;;;;;;;;4995164;28;20282;-82
2024/01/18 12:05:31;;;;;;;13.47;7.90;;;;;;;;;;4994600;28;20704;-83
2024/01/18 12:07:58;;;;;;;16.77;9.87;;;;;;;;;;4994749;28;20208;-82
2024/01/18 12:10:26;;;;;;;13.20;9.13;;;;;;;;;;4994573;28;20242;-83
2024/01/18 12:12:53;;;;;;;11.67;8.07;;;;;;;;;;4995082;28;20208;-82
2024/01/18 12:15:21;;;;;;;11.07;7.47;;;;;;;;;;4994160;28;20204;-83
2024/01/18 12:17:48;;;;;;;14.03;7.47;;;;;;;;;;4994399;28;20207;-82
2024/01/18 12:20:14;;;;;;;10.10;7.60;;;;;;;;;;4994026;28;20236;-82
2024/01/18 12:22:43;;;;;;;12.93;9.07;;;;;;;;;;4995159;28;20247;-82
2024/01/18 12:25:10;;;;;;;6.73;5.83;;;;;;;;;;4994732;28;20319;-82
2024/01/18 12:27:38;;;;;;;10.63;8.17;;;;;;;;;;4995071;28;20208;-82
2024/01/18 12:30:05;;;;;;;13.83;8.87;;;;;;;;;;4994028;28;20228;-83
2024/01/18 12:32:33;;;;;;;12.87;8.13;;;;;;;;;;4994375;28;20600;-82
2024/01/18 12:35:00;;;;;;;17.63;8.77;;;;;;;;;;4994694;28;20208;-83
2024/01/18 12:37:27;;;;;;;11.63;8.13;;;;;;;;;;4993652;28;20338;-82
2024/01/18 12:39:55;;;;;;;9.17;6.87;;;;;;;;;;4994353;28;20231;-82
2024/01/18 12:42:22;;;;;;;11.20;8.03;;;;;;;;;;4993807;28;20235;-83
2024/01/18 12:44:52;;;;;;;12.23;8.10;;;;;;;;;;4994334;28;20216;-83
2024/01/18 12:47:19;;;;;;;11.33;8.17;;;;;;;;;;4993272;28;20243;-82
2024/01/18 12:49:46;;;;;;;11.93;8.50;;;;;;;;;;4994109;28;20216;-82
2024/01/18 12:52:14;;;;;;;9.77;8.20;;;;;;;;;;4992444;28;20239;-83
2024/01/18 12:54:42;;;;;;;11.17;7.27;;;;;;;;;;4994122;28;20204;-83
2024/01/18 12:57:12;;;;;;;9.43;7.53;;;;;;;;;;4993139;28;20728;-83
2024/01/18 12:59:39;;;;;;;9.00;7.70;;;;;;;;;;4994001;28;20192;-83
2024/01/18 13:02:06;;;;;;;15.80;7.83;;;;;;;;;;4993235;28;20240;-84
2024/01/18 13:04:33;;;;;;;9.00;6.37;;;;;;;;;;4993933;28;20211;-83
2024/01/18 13:07:00;;;;;;;14.57;8.30;;;;;;;;;;4992980;28;20814;-84
2024/01/18 13:09:28;;;;;;;11.13;7.67;;;;;;;;;;4993761;28;20207;-83
2024/01/18 13:11:55;;;;;;;12.10;7.67;;;;;;;;;;4993057;28;20238;-83
2024/01/18 13:14:24;;;;;;;9.47;6.97;;;;;;;;;;4993521;28;20659;-83
2024/01/18 13:16:52;;;;;;;10.67;7.07;;;;;;;;;;4992865;28;20664;-83
2024/01/18 13:19:20;;;;;;;12.57;6.93;;;;;;;;;;4993531;28;20324;-84
2024/01/18 13:21:47;;;;;;;12.50;7.20;;;;;;;;;;4992804;28;20239;-83
2024/01/18 13:24:14;;;;;;;10.23;7.13;;;;;;;;;;4993534;28;20208;-83
2024/01/18 13:26:42;;;;;;;11.07;7.23;;;;;;;;;;4992966;28;20309;-84
2024/01/18 13:29:10;;;;;;;10.83;6.40;;;;;;;;;;4993235;28;20303;-82
2024/01/18 13:31:39;;;;;;;11.87;7.27;;;;;;;;;;4992585;28;20322;-84
2024/01/18 13:34:06;;;;;;;8.40;6.03;;;;;;;;;;4993608;28;20210;-83
2024/01/18 13:36:34;;;;;;;8.87;7.10;;;;;;;;;;4992561;28;20243;-83
2024/01/18 13:39:04;;;;;;;10.17;6.80;;;;;;;;;;4992748;28;20216;-83
2024/01/18 13:41:31;;;;;;;10.27;7.73;;;;;;;;;;4992640;28;20240;-83
2024/01/18 13:43:58;;;;;;;11.43;7.23;;;;;;;;;;4993123;28;20295;-83
2024/01/18 13:46:25;;;;;;;8.67;6.80;;;;;;;;;;4992384;28;20239;-83
2024/01/18 13:48:53;;;;;;;12.83;6.77;;;;;;;;;;4992940;28;20204;-83
2024/01/18 13:51:21;;;;;;;12.43;7.50;;;;;;;;;;4992376;28;20275;-82
2024/01/18 13:53:50;;;;;;;10.07;6.67;;;;;;;;;;4993067;28;20262;-82
2024/01/18 13:56:17;;;;;;;9.80;6.73;;;;;;;;;;4992350;28;20244;-83
2024/01/18 13:58:44;;;;;;;7.20;6.10;;;;;;;;;;4992747;28;20209;-83
2024/01/18 14:01:11;;;;;;;10.03;6.63;;;;;;;;;;4992363;28;20635;-83
2024/01/18 14:03:39;;;;;;;11.50;6.33;;;;;;;;;;4992774;28;20231;-83
2024/01/18 14:06:07;;;;;;;10.07;7.10;;;;;;;;;;4992216;28;20240;-83
2024/01/18 14:08:34;;;;;;;11.53;6.40;;;;;;;;;;4992883;28;20212;-83
2024/01/18 14:11:01;;;;;;;9.07;6.00;;;;;;;;;;4992238;28;20306;-83
2024/01/18 14:13:28;;;;;;;10.67;7.97;;;;;;;;;;4992847;28;20208;-83
2024/01/18 14:15:55;;;;;;;9.63;6.33;;;;;;;;;;4992483;28;20236;-84
2024/01/18 14:18:22;;;;;;;7.50;6.60;;;;;;;;;;4992990;28;20216;-83
2024/01/18 14:20:50;;;;;;;8.63;5.93;;;;;;;;;;4992108;28;20251;-84
2024/01/18 14:23:18;;;;;;;9.90;6.90;;;;;;;;;;4992874;28;20702;-84
2024/01/18 14:25:45;;;;;;;9.13;6.77;;;;;;;;;;4992485;28;20270;-83
2024/01/18 14:28:13;;;;;;;14.70;7.37;;;;;;;;;;4998865;28;20219;-84
2024/01/18 14:30:40;;;;;;;12.97;6.90;;;;;;;;;;4992330;28;20266;-83
2024/01/18 14:33:08;;;;;;;8.33;6.13;;;;;;;;;;4993084;28;20231;-84
2024/01/18 14:35:35;;;;;;;11.37;7.30;;;;;;;;;;4992431;28;20266;-84
2024/01/18 14:38:02;;;;;;;10.27;6.33;;;;;;;;;;4992640;28;20294;-84